sensor_id;sensor_type;location;lat;lon;timestamp;P1;durP1;ratioP1;P2;durP2;ratioP2
73434;SDS011;61648;52.094;5.054;2022-10-14T04:44:30;12.98;;;4.97;;
73434;SDS011;61648;52.094;5.054;2022-10-14T04:46:56;11.65;;;4.53;;
73434;SDS011;61648;52.094;5.054;2022-10-14T04:49:22;11.98;;;4.78;;
73434;SDS011;61648;52.094;5.054;2022-10-14T04:51:49;10.45;;;4.45;;
73434;SDS011;61648;52.094;5.054;2022-10-14T04:54:15;11.77;;;4.63;;
73434;SDS011;61648;52.094;5.054;2022-10-14T04:56:40;12.20;;;5.13;;
73434;SDS011;61648;52.094;5.054;2022-10-14T04:59:07;12.57;;;5.10;;
73434;SDS011;61648;52.094;5.054;2022-10-14T05:01:33;13.60;;;5.32;;
73434;SDS011;61648;52.094;5.054;2022-10-14T05:03:59;12.75;;;4.43;;
73434;SDS011;61648;52.094;5.054;2022-10-14T05:06:25;13.60;;;5.32;;
73434;SDS011;61648;52.094;5.054;2022-10-14T05:08:51;12.65;;;5.07;;
73434;SDS011;61648;52.094;5.054;2022-10-14T05:11:18;13.95;;;5.70;;
73434;SDS011;61648;52.094;5.054;2022-10-14T05:13:43;14.10;;;5.80;;
73434;SDS011;61648;52.094;5.054;2022-10-14T05:16:09;13.73;;;5.63;;
73434;SDS011;61648;52.094;5.054;2022-10-14T05:18:35;13.93;;;5.15;;
73434;SDS011;61648;52.094;5.054;2022-10-14T05:21:01;12.98;;;4.95;;
73434;SDS011;61648;52.094;5.054;2022-10-14T05:23:27;11.73;;;5.15;;
73434;SDS011;61648;52.094;5.054;2022-10-14T05:25:53;12.80;;;4.93;;
73434;SDS011;61648;52.094;5.054;2022-10-14T05:28:19;12.82;;;5.15;;
73434;SDS011;61648;52.094;5.054;2022-10-14T05:30:45;13.27;;;4.90;;
73434;SDS011;61648;52.094;5.054;2022-10-14T05:33:11;13.55;;;5.45;;
73434;SDS011;61648;52.094;5.054;2022-10-14T05:35:37;14.98;;;5.30;;
73434;SDS011;61648;52.094;5.054;2022-10-14T05:38:03;12.50;;;5.35;;
73434;SDS011;61648;52.094;5.054;2022-10-14T05:40:29;13.23;;;5.53;;
73434;SDS011;61648;52.094;5.054;2022-10-14T05:42:55;12.02;;;5.10;;
73434;SDS011;61648;52.094;5.054;2022-10-14T05:45:21;12.50;;;4.65;;
73434;SDS011;61648;52.094;5.054;2022-10-14T05:47:47;12.63;;;4.90;;
73434;SDS011;61648;52.094;5.054;2022-10-14T05:50:13;13.90;;;5.15;;
73434;SDS011;61648;52.094;5.054;2022-10-14T05:52:39;12.35;;;5.30;;
73434;SDS011;61648;52.094;5.054;2022-10-14T05:55:06;12.25;;;4.60;;
73434;SDS011;61648;52.094;5.054;2022-10-14T05:57:32;11.73;;;4.63;;
73434;SDS011;61648;52.094;5.054;2022-10-14T05:59:59;10.13;;;4.65;;
73434;SDS011;61648;52.094;5.054;2022-10-14T06:02:25;13.70;;;5.55;;
73434;SDS011;61648;52.094;5.054;2022-10-14T06:04:51;12.07;;;4.50;;
73434;SDS011;61648;52.094;5.054;2022-10-14T06:07:17;11.43;;;4.75;;
73434;SDS011;61648;52.094;5.054;2022-10-14T06:09:43;12.10;;;5.05;;
73434;SDS011;61648;52.094;5.054;2022-10-14T06:12:09;12.32;;;4.68;;
73434;SDS011;61648;52.094;5.054;2022-10-14T06:14:35;14.43;;;5.07;;
73434;SDS011;61648;52.094;5.054;2022-10-14T06:17:03;12.90;;;4.95;;
73434;SDS011;61648;52.094;5.054;2022-10-14T06:19:29;14.63;;;4.60;;
73434;SDS011;61648;52.094;5.054;2022-10-14T06:21:55;17.60;;;5.53;;
73434;SDS011;61648;52.094;5.054;2022-10-14T06:24:21;12.77;;;4.78;;
73434;SDS011;61648;52.094;5.054;2022-10-14T06:26:47;11.93;;;4.60;;
73434;SDS011;61648;52.094;5.054;2022-10-14T06:29:14;11.63;;;4.55;;
73434;SDS011;61648;52.094;5.054;2022-10-14T06:31:40;13.15;;;4.68;;
73434;SDS011;61648;52.094;5.054;2022-10-14T06:34:06;10.32;;;4.10;;
73434;SDS011;61648;52.094;5.054;2022-10-14T06:36:32;10.55;;;4.28;;
73434;SDS011;61648;52.094;5.054;2022-10-14T06:38:58;12.43;;;3.92;;
73434;SDS011;61648;52.094;5.054;2022-10-14T06:41:24;20.50;;;4.60;;
73434;SDS011;61648;52.094;5.054;2022-10-14T06:43:50;10.50;;;4.15;;
73434;SDS011;61648;52.094;5.054;2022-10-14T06:46:16;9.35;;;3.58;;
73434;SDS011;61648;52.094;5.054;2022-10-14T06:48:42;11.15;;;4.15;;
73434;SDS011;61648;52.094;5.054;2022-10-14T06:51:08;8.43;;;3.83;;
73434;SDS011;61648;52.094;5.054;2022-10-14T06:53:35;9.30;;;3.90;;
73434;SDS011;61648;52.094;5.054;2022-10-14T06:56:02;10.48;;;3.83;;
73434;SDS011;61648;52.094;5.054;2022-10-14T06:58:28;11.00;;;4.15;;
73434;SDS011;61648;52.094;5.054;2022-10-14T07:00:54;10.57;;;3.97;;
73434;SDS011;61648;52.094;5.054;2022-10-14T07:03:20;12.32;;;4.13;;
73434;SDS011;61648;52.094;5.054;2022-10-14T07:05:46;10.75;;;3.67;;
73434;SDS011;61648;52.094;5.054;2022-10-14T07:08:12;13.00;;;3.78;;
73434;SDS011;61648;52.094;5.054;2022-10-14T07:10:38;8.07;;;3.22;;
73434;SDS011;61648;52.094;5.054;2022-10-14T07:13:04;9.05;;;3.33;;
73434;SDS011;61648;52.094;5.054;2022-10-14T07:15:30;8.68;;;3.25;;
73434;SDS011;61648;52.094;5.054;2022-10-14T07:17:56;8.65;;;3.42;;
73434;SDS011;61648;52.094;5.054;2022-10-14T07:20:22;9.40;;;3.33;;
73434;SDS011;61648;52.094;5.054;2022-10-14T07:22:47;10.07;;;3.58;;
73434;SDS011;61648;52.094;5.054;2022-10-14T07:25:13;7.65;;;3.40;;
73434;SDS011;61648;52.094;5.054;2022-10-14T07:27:39;9.70;;;3.45;;
73434;SDS011;61648;52.094;5.054;2022-10-14T07:30:05;8.18;;;3.40;;
73434;SDS011;61648;52.094;5.054;2022-10-14T07:32:33;9.48;;;3.20;;
73434;SDS011;61648;52.094;5.054;2022-10-14T07:35:00;10.10;;;3.80;;
73434;SDS011;61648;52.094;5.054;2022-10-14T07:37:26;8.43;;;3.67;;
73434;SDS011;61648;52.094;5.054;2022-10-14T07:39:52;8.63;;;3.35;;
73434;SDS011;61648;52.094;5.054;2022-10-14T07:42:18;7.80;;;3.03;;
73434;SDS011;61648;52.094;5.054;2022-10-14T07:44:44;8.48;;;3.80;;
73434;SDS011;61648;52.094;5.054;2022-10-14T07:47:10;7.72;;;3.30;;
73434;SDS011;61648;52.094;5.054;2022-10-14T07:49:37;8.35;;;3.33;;
73434;SDS011;61648;52.094;5.054;2022-10-14T07:52:03;7.97;;;3.15;;
73434;SDS011;61648;52.094;5.054;2022-10-14T07:54:29;7.40;;;3.00;;
73434;SDS011;61648;52.094;5.054;2022-10-14T07:56:56;8.65;;;3.20;;
73434;SDS011;61648;52.094;5.054;2022-10-14T07:59:22;7.78;;;3.20;;
73434;SDS011;61648;52.094;5.054;2022-10-14T08:01:49;8.88;;;3.42;;
73434;SDS011;61648;52.094;5.054;2022-10-14T08:04:15;7.45;;;3.13;;
73434;SDS011;61648;52.094;5.054;2022-10-14T08:06:42;8.43;;;3.20;;
73434;SDS011;61648;52.094;5.054;2022-10-14T08:09:08;8.75;;;3.47;;
73434;SDS011;61648;52.094;5.054;2022-10-14T08:11:34;9.63;;;3.50;;
73434;SDS011;61648;52.094;5.054;2022-10-14T08:14:01;8.25;;;3.53;;
73434;SDS011;61648;52.094;5.054;2022-10-14T08:16:29;7.93;;;3.15;;
73434;SDS011;61648;52.094;5.054;2022-10-14T08:18:56;8.77;;;3.47;;
73434;SDS011;61648;52.094;5.054;2022-10-14T08:21:22;10.00;;;3.78;;
73434;SDS011;61648;52.094;5.054;2022-10-14T08:23:48;7.68;;;3.33;;
73434;SDS011;61648;52.094;5.054;2022-10-14T08:26:26;7.80;;;3.35;;
73434;SDS011;61648;52.094;5.054;2022-10-14T08:28:52;8.30;;;3.33;;
73434;SDS011;61648;52.094;5.054;2022-10-14T08:31:19;10.25;;;3.40;;
73434;SDS011;61648;52.094;5.054;2022-10-14T08:33:45;9.15;;;3.45;;
73434;SDS011;61648;52.094;5.054;2022-10-14T08:36:11;7.88;;;3.35;;
73434;SDS011;61648;52.094;5.054;2022-10-14T08:38:37;6.70;;;3.28;;
73434;SDS011;61648;52.094;5.054;2022-10-14T08:43:30;7.70;;;3.50;;
73434;SDS011;61648;52.094;5.054;2022-10-14T08:46:05;10.88;;;3.58;;
73434;SDS011;61648;52.094;5.054;2022-10-14T08:48:35;9.90;;;3.47;;
73434;SDS011;61648;52.094;5.054;2022-10-14T08:51:04;8.35;;;3.40;;
73434;SDS011;61648;52.094;5.054;2022-10-14T08:53:33;9.00;;;3.78;;
73434;SDS011;61648;52.094;5.054;2022-10-14T08:56:02;9.57;;;3.50;;
73434;SDS011;61648;52.094;5.054;2022-10-14T08:58:33;9.90;;;3.47;;
73434;SDS011;61648;52.094;5.054;2022-10-14T09:01:04;10.50;;;3.67;;
73434;SDS011;61648;52.094;5.054;2022-10-14T09:03:35;12.30;;;3.65;;
73434;SDS011;61648;52.094;5.054;2022-10-14T09:08:38;10.13;;;3.33;;
73434;SDS011;61648;52.094;5.054;2022-10-14T09:11:07;10.73;;;3.83;;
73434;SDS011;61648;52.094;5.054;2022-10-14T09:13:36;9.18;;;3.28;;
73434;SDS011;61648;52.094;5.054;2022-10-14T09:16:05;10.60;;;3.50;;
73434;SDS011;61648;52.094;5.054;2022-10-14T09:20:59;11.88;;;5.15;;
73434;SDS011;61648;52.094;5.054;2022-10-14T09:23:26;11.30;;;5.32;;
73434;SDS011;61648;52.094;5.054;2022-10-14T09:26:04;12.70;;;4.70;;
73434;SDS011;61648;52.094;5.054;2022-10-14T09:28:33;11.57;;;4.63;;
73434;SDS011;61648;52.094;5.054;2022-10-14T09:31:00;11.05;;;4.57;;
73434;SDS011;61648;52.094;5.054;2022-10-14T09:33:26;10.20;;;4.32;;
73434;SDS011;61648;52.094;5.054;2022-10-14T09:35:53;10.30;;;4.50;;
73434;SDS011;61648;52.094;5.054;2022-10-14T09:38:19;12.45;;;4.57;;
73434;SDS011;61648;52.094;5.054;2022-10-14T09:40:46;11.85;;;4.40;;
73434;SDS011;61648;52.094;5.054;2022-10-14T09:43:14;10.43;;;3.70;;
73434;SDS011;61648;52.094;5.054;2022-10-14T09:48:29;8.80;;;3.58;;
73434;SDS011;61648;52.094;5.054;2022-10-14T09:51:00;8.43;;;3.42;;
73434;SDS011;61648;52.094;5.054;2022-10-14T09:53:32;8.88;;;3.53;;
73434;SDS011;61648;52.094;5.054;2022-10-14T09:55:59;12.20;;;4.20;;
73434;SDS011;61648;52.094;5.054;2022-10-14T10:01:01;9.43;;;3.67;;
73434;SDS011;61648;52.094;5.054;2022-10-14T10:03:29;8.18;;;3.55;;
73434;SDS011;61648;52.094;5.054;2022-10-14T10:06:09;9.40;;;3.75;;
73434;SDS011;61648;52.094;5.054;2022-10-14T10:08:37;9.95;;;3.47;;
73434;SDS011;61648;52.094;5.054;2022-10-14T10:11:12;7.95;;;3.35;;
73434;SDS011;61648;52.094;5.054;2022-10-14T10:13:40;10.70;;;3.67;;
73434;SDS011;61648;52.094;5.054;2022-10-14T10:16:20;10.15;;;3.90;;
73434;SDS011;61648;52.094;5.054;2022-10-14T10:18:47;8.63;;;4.03;;
73434;SDS011;61648;52.094;5.054;2022-10-14T10:21:17;10.45;;;4.10;;
73434;SDS011;61648;52.094;5.054;2022-10-14T10:23:49;9.27;;;4.55;;
73434;SDS011;61648;52.094;5.054;2022-10-14T10:28:45;8.93;;;3.72;;
73434;SDS011;61648;52.094;5.054;2022-10-14T10:33:59;11.32;;;4.22;;
73434;SDS011;61648;52.094;5.054;2022-10-14T10:36:30;7.32;;;3.60;;
73434;SDS011;61648;52.094;5.054;2022-10-14T10:43:59;11.23;;;3.60;;
73434;SDS011;61648;52.094;5.054;2022-10-14T10:54:25;9.63;;;3.70;;
73434;SDS011;61648;52.094;5.054;2022-10-14T10:57:00;6.05;;;3.20;;
73434;SDS011;61648;52.094;5.054;2022-10-14T11:07:17;5.35;;;3.03;;
73434;SDS011;61648;52.094;5.054;2022-10-14T11:13:29;6.78;;;3.30;;
73434;SDS011;61648;52.094;5.054;2022-10-14T11:15:59;6.72;;;3.10;;
73434;SDS011;61648;52.094;5.054;2022-10-14T11:34:03;6.45;;;2.70;;
73434;SDS011;61648;52.094;5.054;2022-10-14T11:36:53;5.22;;;2.40;;
73434;SDS011;61648;52.094;5.054;2022-10-14T11:44:37;4.32;;;2.40;;
73434;SDS011;61648;52.094;5.054;2022-10-14T11:47:09;5.72;;;2.65;;
73434;SDS011;61648;52.094;5.054;2022-10-14T11:49:53;4.97;;;2.40;;
73434;SDS011;61648;52.094;5.054;2022-10-14T11:52:28;3.90;;;2.30;;
73434;SDS011;61648;52.094;5.054;2022-10-14T12:00:03;4.07;;;2.15;;
73434;SDS011;61648;52.094;5.054;2022-10-14T12:02:32;2.85;;;1.88;;
73434;SDS011;61648;52.094;5.054;2022-10-14T12:07:35;4.38;;;2.38;;
73434;SDS011;61648;52.094;5.054;2022-10-14T12:10:12;7.45;;;2.30;;
73434;SDS011;61648;52.094;5.054;2022-10-14T12:12:39;3.67;;;1.90;;
73434;SDS011;61648;52.094;5.054;2022-10-14T12:15:06;2.83;;;1.90;;
73434;SDS011;61648;52.094;5.054;2022-10-14T12:17:58;2.97;;;1.90;;
73434;SDS011;61648;52.094;5.054;2022-10-14T12:22:51;4.00;;;1.90;;
73434;SDS011;61648;52.094;5.054;2022-10-14T12:25:19;3.85;;;2.08;;
73434;SDS011;61648;52.094;5.054;2022-10-14T12:27:46;3.90;;;2.08;;
73434;SDS011;61648;52.094;5.054;2022-10-14T12:32:58;3.03;;;1.80;;
73434;SDS011;61648;52.094;5.054;2022-10-14T12:38:10;3.03;;;2.05;;
73434;SDS011;61648;52.094;5.054;2022-10-14T12:40:37;3.05;;;1.73;;
73434;SDS011;61648;52.094;5.054;2022-10-14T12:43:16;2.45;;;1.58;;
73434;SDS011;61648;52.094;5.054;2022-10-14T12:45:48;3.92;;;1.85;;
73434;SDS011;61648;52.094;5.054;2022-10-14T12:48:15;3.58;;;1.90;;
73434;SDS011;61648;52.094;5.054;2022-10-14T12:53:19;4.05;;;1.85;;
73434;SDS011;61648;52.094;5.054;2022-10-14T12:55:50;3.28;;;1.65;;
73434;SDS011;61648;52.094;5.054;2022-10-14T12:58:20;4.53;;;1.92;;
73434;SDS011;61648;52.094;5.054;2022-10-14T13:00:52;4.00;;;1.90;;
73434;SDS011;61648;52.094;5.054;2022-10-14T13:03:19;3.08;;;1.77;;
73434;SDS011;61648;52.094;5.054;2022-10-14T13:05:47;4.60;;;1.65;;
73434;SDS011;61648;52.094;5.054;2022-10-14T13:29:07;3.55;;;1.60;;
73434;SDS011;61648;52.094;5.054;2022-10-14T13:31:41;4.25;;;1.52;;
73434;SDS011;61648;52.094;5.054;2022-10-14T13:34:16;3.38;;;1.48;;
73434;SDS011;61648;52.094;5.054;2022-10-14T13:37:00;2.40;;;1.27;;
73434;SDS011;61648;52.094;5.054;2022-10-14T13:39:30;2.63;;;1.30;;
73434;SDS011;61648;52.094;5.054;2022-10-14T13:41:56;3.03;;;1.58;;
73434;SDS011;61648;52.094;5.054;2022-10-14T13:44:23;4.05;;;1.63;;
73434;SDS011;61648;52.094;5.054;2022-10-14T13:46:50;2.22;;;1.58;;
73434;SDS011;61648;52.094;5.054;2022-10-14T13:49:16;2.08;;;1.50;;
73434;SDS011;61648;52.094;5.054;2022-10-14T13:52:02;2.15;;;1.27;;
73434;SDS011;61648;52.094;5.054;2022-10-14T13:54:30;2.45;;;1.38;;
73434;SDS011;61648;52.094;5.054;2022-10-14T13:59:22;4.13;;;1.77;;
73434;SDS011;61648;52.094;5.054;2022-10-14T14:01:49;3.00;;;1.60;;
73434;SDS011;61648;52.094;5.054;2022-10-14T14:04:21;2.80;;;1.50;;
73434;SDS011;61648;52.094;5.054;2022-10-14T14:06:47;3.03;;;1.58;;
73434;SDS011;61648;52.094;5.054;2022-10-14T14:09:18;3.65;;;1.70;;
73434;SDS011;61648;52.094;5.054;2022-10-14T14:11:45;3.35;;;1.52;;
73434;SDS011;61648;52.094;5.054;2022-10-14T14:14:19;3.65;;;1.70;;
73434;SDS011;61648;52.094;5.054;2022-10-14T14:16:51;4.53;;;1.92;;
73434;SDS011;61648;52.094;5.054;2022-10-14T14:19:27;3.97;;;1.80;;
73434;SDS011;61648;52.094;5.054;2022-10-14T14:24:38;7.15;;;3.03;;
73434;SDS011;61648;52.094;5.054;2022-10-14T14:27:04;9.45;;;2.95;;
73434;SDS011;61648;52.094;5.054;2022-10-14T14:29:31;4.78;;;1.98;;
73434;SDS011;61648;52.094;5.054;2022-10-14T14:31:58;6.97;;;2.38;;
73434;SDS011;61648;52.094;5.054;2022-10-14T14:34:24;9.25;;;2.05;;
73434;SDS011;61648;52.094;5.054;2022-10-14T14:36:50;6.03;;;2.00;;
73434;SDS011;61648;52.094;5.054;2022-10-14T14:39:24;3.67;;;1.45;;
73434;SDS011;61648;52.094;5.054;2022-10-14T14:41:51;3.70;;;1.65;;
73434;SDS011;61648;52.094;5.054;2022-10-14T14:44:18;3.40;;;1.23;;
73434;SDS011;61648;52.094;5.054;2022-10-14T14:46:45;4.88;;;1.50;;
73434;SDS011;61648;52.094;5.054;2022-10-14T14:49:13;4.25;;;1.58;;
73434;SDS011;61648;52.094;5.054;2022-10-14T14:54:06;13.00;;;2.80;;
73434;SDS011;61648;52.094;5.054;2022-10-14T14:56:41;5.63;;;1.90;;
73434;SDS011;61648;52.094;5.054;2022-10-14T15:01:50;4.25;;;1.70;;
73434;SDS011;61648;52.094;5.054;2022-10-14T15:04:16;6.93;;;1.63;;
73434;SDS011;61648;52.094;5.054;2022-10-14T15:10:07;3.85;;;1.33;;
73434;SDS011;61648;52.094;5.054;2022-10-14T15:12:15;2.78;;;1.30;;
73434;SDS011;61648;52.094;5.054;2022-10-14T15:14:45;2.85;;;1.60;;
73434;SDS011;61648;52.094;5.054;2022-10-14T15:17:22;3.85;;;1.58;;
73434;SDS011;61648;52.094;5.054;2022-10-14T15:19:48;3.88;;;1.52;;
73434;SDS011;61648;52.094;5.054;2022-10-14T15:27:29;2.78;;;1.20;;
73434;SDS011;61648;52.094;5.054;2022-10-14T15:32:40;4.13;;;1.35;;
73434;SDS011;61648;52.094;5.054;2022-10-14T15:35:06;3.58;;;1.35;;
73434;SDS011;61648;52.094;5.054;2022-10-14T15:37:33;2.55;;;1.30;;
73434;SDS011;61648;52.094;5.054;2022-10-14T15:40:02;3.53;;;1.83;;
73434;SDS011;61648;52.094;5.054;2022-10-14T15:42:28;2.65;;;1.15;;
73434;SDS011;61648;52.094;5.054;2022-10-14T15:44:54;4.10;;;1.63;;
73434;SDS011;61648;52.094;5.054;2022-10-14T15:47:20;2.45;;;1.33;;
73434;SDS011;61648;52.094;5.054;2022-10-14T15:49:47;4.18;;;1.10;;
73434;SDS011;61648;52.094;5.054;2022-10-14T15:52:14;3.95;;;1.30;;
73434;SDS011;61648;52.094;5.054;2022-10-14T15:54:40;2.45;;;1.25;;
73434;SDS011;61648;52.094;5.054;2022-10-14T15:57:06;3.33;;;1.67;;
73434;SDS011;61648;52.094;5.054;2022-10-14T15:59:32;3.15;;;1.00;;
73434;SDS011;61648;52.094;5.054;2022-10-14T16:01:58;3.80;;;1.10;;
73434;SDS011;61648;52.094;5.054;2022-10-14T16:04:24;3.78;;;1.15;;
73434;SDS011;61648;52.094;5.054;2022-10-14T16:06:52;3.53;;;1.15;;
73434;SDS011;61648;52.094;5.054;2022-10-14T16:09:19;8.98;;;3.15;;
73434;SDS011;61648;52.094;5.054;2022-10-14T16:11:45;6.30;;;3.10;;
73434;SDS011;61648;52.094;5.054;2022-10-14T16:14:14;8.27;;;3.63;;
73434;SDS011;61648;52.094;5.054;2022-10-14T16:16:44;10.90;;;4.25;;
73434;SDS011;61648;52.094;5.054;2022-10-14T16:19:10;8.05;;;3.20;;
73434;SDS011;61648;52.094;5.054;2022-10-14T16:21:42;7.05;;;3.08;;
73434;SDS011;61648;52.094;5.054;2022-10-14T16:24:09;8.40;;;3.10;;
73434;SDS011;61648;52.094;5.054;2022-10-14T16:26:40;5.97;;;2.80;;
73434;SDS011;61648;52.094;5.054;2022-10-14T16:29:06;7.13;;;3.10;;
73434;SDS011;61648;52.094;5.054;2022-10-14T16:31:36;15.00;;;5.05;;
73434;SDS011;61648;52.094;5.054;2022-10-14T16:34:02;14.95;;;5.35;;
73434;SDS011;61648;52.094;5.054;2022-10-14T16:36:28;13.45;;;4.70;;
73434;SDS011;61648;52.094;5.054;2022-10-14T16:38:54;9.60;;;3.70;;
73434;SDS011;61648;52.094;5.054;2022-10-14T16:41:20;8.20;;;3.40;;
73434;SDS011;61648;52.094;5.054;2022-10-14T16:43:46;8.15;;;3.30;;
73434;SDS011;61648;52.094;5.054;2022-10-14T16:46:15;10.07;;;3.40;;
73434;SDS011;61648;52.094;5.054;2022-10-14T16:48:41;7.93;;;3.20;;
73434;SDS011;61648;52.094;5.054;2022-10-14T16:51:07;11.98;;;3.88;;
73434;SDS011;61648;52.094;5.054;2022-10-14T16:53:33;9.23;;;3.75;;
73434;SDS011;61648;52.094;5.054;2022-10-14T16:56:15;6.63;;;3.05;;
73434;SDS011;61648;52.094;5.054;2022-10-14T16:59:00;9.38;;;3.65;;
73434;SDS011;61648;52.094;5.054;2022-10-14T17:01:26;8.70;;;3.47;;
73434;SDS011;61648;52.094;5.054;2022-10-14T17:03:53;8.98;;;3.60;;
73434;SDS011;61648;52.094;5.054;2022-10-14T17:06:20;9.63;;;4.00;;
73434;SDS011;61648;52.094;5.054;2022-10-14T17:08:46;11.93;;;3.80;;
73434;SDS011;61648;52.094;5.054;2022-10-14T17:11:12;8.88;;;3.78;;
73434;SDS011;61648;52.094;5.054;2022-10-14T17:13:39;9.40;;;3.63;;
73434;SDS011;61648;52.094;5.054;2022-10-14T17:16:05;7.35;;;3.40;;
73434;SDS011;61648;52.094;5.054;2022-10-14T17:18:32;8.25;;;3.40;;
73434;SDS011;61648;52.094;5.054;2022-10-14T17:21:05;7.00;;;3.30;;
73434;SDS011;61648;52.094;5.054;2022-10-14T17:23:32;9.68;;;3.00;;
73434;SDS011;61648;52.094;5.054;2022-10-14T17:26:03;8.77;;;3.47;;
73434;SDS011;61648;52.094;5.054;2022-10-14T17:28:30;9.90;;;3.30;;
73434;SDS011;61648;52.094;5.054;2022-10-14T17:30:56;7.78;;;3.30;;
73434;SDS011;61648;52.094;5.054;2022-10-14T17:33:23;10.05;;;3.30;;
73434;SDS011;61648;52.094;5.054;2022-10-14T17:36:32;11.50;;;3.53;;
73434;SDS011;61648;52.094;5.054;2022-10-14T17:38:39;10.25;;;3.25;;
73434;SDS011;61648;52.094;5.054;2022-10-14T17:41:06;10.68;;;3.70;;
73434;SDS011;61648;52.094;5.054;2022-10-14T17:43:32;9.68;;;3.33;;
73434;SDS011;61648;52.094;5.054;2022-10-14T17:46:02;6.57;;;3.10;;
73434;SDS011;61648;52.094;5.054;2022-10-14T17:48:28;8.15;;;2.85;;
73434;SDS011;61648;52.094;5.054;2022-10-14T17:50:54;7.78;;;3.17;;
73434;SDS011;61648;52.094;5.054;2022-10-14T17:53:21;9.10;;;3.05;;
73434;SDS011;61648;52.094;5.054;2022-10-14T17:55:47;9.20;;;3.05;;
73434;SDS011;61648;52.094;5.054;2022-10-14T17:58:13;7.72;;;3.10;;
73434;SDS011;61648;52.094;5.054;2022-10-14T18:00:40;9.50;;;3.05;;
73434;SDS011;61648;52.094;5.054;2022-10-14T18:03:06;8.02;;;3.08;;
73434;SDS011;61648;52.094;5.054;2022-10-14T18:05:32;7.93;;;3.03;;
73434;SDS011;61648;52.094;5.054;2022-10-14T18:07:59;9.02;;;3.13;;
73434;SDS011;61648;52.094;5.054;2022-10-14T18:10:25;7.57;;;3.08;;
73434;SDS011;61648;52.094;5.054;2022-10-14T18:12:51;11.60;;;2.90;;
73434;SDS011;61648;52.094;5.054;2022-10-14T18:15:18;6.30;;;2.78;;
73434;SDS011;61648;52.094;5.054;2022-10-14T18:17:44;7.18;;;3.25;;
73434;SDS011;61648;52.094;5.054;2022-10-14T18:20:10;6.93;;;2.63;;
73434;SDS011;61648;52.094;5.054;2022-10-14T18:22:36;6.40;;;3.00;;
73434;SDS011;61648;52.094;5.054;2022-10-14T18:25:02;6.78;;;2.70;;
73434;SDS011;61648;52.094;5.054;2022-10-14T18:27:29;9.20;;;2.90;;
73434;SDS011;61648;52.094;5.054;2022-10-14T18:30:01;7.35;;;2.75;;
73434;SDS011;61648;52.094;5.054;2022-10-14T18:32:27;7.50;;;2.80;;
73434;SDS011;61648;52.094;5.054;2022-10-14T18:34:53;7.63;;;2.90;;
73434;SDS011;61648;52.094;5.054;2022-10-14T18:37:23;6.32;;;2.58;;
73434;SDS011;61648;52.094;5.054;2022-10-14T18:39:49;6.05;;;2.40;;
73434;SDS011;61648;52.094;5.054;2022-10-14T18:42:15;5.82;;;2.70;;
73434;SDS011;61648;52.094;5.054;2022-10-14T18:44:41;6.38;;;2.60;;
73434;SDS011;61648;52.094;5.054;2022-10-14T18:47:07;8.45;;;2.83;;
73434;SDS011;61648;52.094;5.054;2022-10-14T18:49:33;9.93;;;2.90;;
73434;SDS011;61648;52.094;5.054;2022-10-14T18:51:59;7.50;;;2.70;;
73434;SDS011;61648;52.094;5.054;2022-10-14T18:54:25;7.40;;;3.20;;
73434;SDS011;61648;52.094;5.054;2022-10-14T18:56:52;13.30;;;3.60;;
73434;SDS011;61648;52.094;5.054;2022-10-14T18:59:20;8.83;;;3.00;;
73434;SDS011;61648;52.094;5.054;2022-10-14T19:01:47;11.98;;;3.25;;
73434;SDS011;61648;52.094;5.054;2022-10-14T19:04:16;9.07;;;3.47;;
73434;SDS011;61648;52.094;5.054;2022-10-14T19:06:43;9.18;;;3.40;;
73434;SDS011;61648;52.094;5.054;2022-10-14T19:09:16;8.88;;;3.33;;
73434;SDS011;61648;52.094;5.054;2022-10-14T19:11:44;7.90;;;3.28;;
73434;SDS011;61648;52.094;5.054;2022-10-14T19:14:11;9.73;;;3.00;;
73434;SDS011;61648;52.094;5.054;2022-10-14T19:16:38;8.27;;;3.10;;
73434;SDS011;61648;52.094;5.054;2022-10-14T19:19:05;11.57;;;4.20;;
73434;SDS011;61648;52.094;5.054;2022-10-14T19:21:35;10.95;;;4.25;;
73434;SDS011;61648;52.094;5.054;2022-10-14T19:24:01;10.13;;;3.40;;
73434;SDS011;61648;52.094;5.054;2022-10-14T19:26:29;10.10;;;3.33;;
73434;SDS011;61648;52.094;5.054;2022-10-14T19:28:59;11.38;;;3.53;;
73434;SDS011;61648;52.094;5.054;2022-10-14T19:31:26;8.70;;;3.10;;
73434;SDS011;61648;52.094;5.054;2022-10-14T19:33:53;6.90;;;2.92;;
73434;SDS011;61648;52.094;5.054;2022-10-14T19:36:20;5.70;;;2.95;;
73434;SDS011;61648;52.094;5.054;2022-10-14T19:38:47;7.60;;;3.25;;
73434;SDS011;61648;52.094;5.054;2022-10-14T19:41:16;6.72;;;2.65;;
73434;SDS011;61648;52.094;5.054;2022-10-14T19:43:42;8.25;;;3.03;;
73434;SDS011;61648;52.094;5.054;2022-10-14T19:46:08;6.10;;;2.80;;
73434;SDS011;61648;52.094;5.054;2022-10-14T19:48:36;7.97;;;2.85;;
73434;SDS011;61648;52.094;5.054;2022-10-14T19:51:02;6.85;;;3.10;;
73434;SDS011;61648;52.094;5.054;2022-10-14T19:53:29;7.53;;;2.70;;
73434;SDS011;61648;52.094;5.054;2022-10-14T19:56:02;9.07;;;2.67;;
73434;SDS011;61648;52.094;5.054;2022-10-14T19:58:28;5.90;;;2.53;;
73434;SDS011;61648;52.094;5.054;2022-10-14T20:00:54;6.18;;;2.67;;
73434;SDS011;61648;52.094;5.054;2022-10-14T20:03:20;7.95;;;2.90;;
73434;SDS011;61648;52.094;5.054;2022-10-14T20:06:03;6.57;;;2.95;;
73434;SDS011;61648;52.094;5.054;2022-10-14T20:08:30;9.40;;;2.92;;
73434;SDS011;61648;52.094;5.054;2022-10-14T20:10:58;6.30;;;2.70;;
73434;SDS011;61648;52.094;5.054;2022-10-14T20:15:53;7.65;;;2.55;;
73434;SDS011;61648;52.094;5.054;2022-10-14T20:18:20;7.38;;;2.75;;
73434;SDS011;61648;52.094;5.054;2022-10-14T20:20:46;7.35;;;2.70;;
73434;SDS011;61648;52.094;5.054;2022-10-14T20:23:12;6.05;;;2.60;;
73434;SDS011;61648;52.094;5.054;2022-10-14T20:25:37;5.30;;;2.53;;
73434;SDS011;61648;52.094;5.054;2022-10-14T20:28:05;5.65;;;2.53;;
73434;SDS011;61648;52.094;5.054;2022-10-14T20:30:31;5.38;;;2.38;;
73434;SDS011;61648;52.094;5.054;2022-10-14T20:32:57;7.10;;;2.35;;
73434;SDS011;61648;52.094;5.054;2022-10-14T20:35:23;6.63;;;2.40;;
73434;SDS011;61648;52.094;5.054;2022-10-14T20:37:49;5.47;;;2.50;;
73434;SDS011;61648;52.094;5.054;2022-10-14T20:40:15;5.97;;;2.13;;
73434;SDS011;61648;52.094;5.054;2022-10-14T20:45:13;5.00;;;2.10;;
73434;SDS011;61648;52.094;5.054;2022-10-14T20:47:39;7.32;;;2.55;;
73434;SDS011;61648;52.094;5.054;2022-10-14T20:50:05;5.07;;;2.40;;
73434;SDS011;61648;52.094;5.054;2022-10-14T20:52:31;6.85;;;2.35;;
73434;SDS011;61648;52.094;5.054;2022-10-14T20:54:57;6.25;;;2.33;;
73434;SDS011;61648;52.094;5.054;2022-10-14T20:57:23;6.50;;;2.63;;
73434;SDS011;61648;52.094;5.054;2022-10-14T20:59:49;7.13;;;2.35;;
73434;SDS011;61648;52.094;5.054;2022-10-14T21:02:17;5.28;;;2.13;;
73434;SDS011;61648;52.094;5.054;2022-10-14T21:04:47;5.30;;;2.40;;
73434;SDS011;61648;52.094;5.054;2022-10-14T21:07:13;5.32;;;2.30;;
73434;SDS011;61648;52.094;5.054;2022-10-14T21:09:39;8.57;;;2.42;;
73434;SDS011;61648;52.094;5.054;2022-10-14T21:12:05;7.00;;;2.60;;
73434;SDS011;61648;52.094;5.054;2022-10-14T21:14:31;6.75;;;2.42;;
73434;SDS011;61648;52.094;5.054;2022-10-14T21:16:57;7.57;;;2.60;;
73434;SDS011;61648;52.094;5.054;2022-10-14T21:19:23;4.93;;;2.25;;
73434;SDS011;61648;52.094;5.054;2022-10-14T21:21:49;5.82;;;2.55;;
73434;SDS011;61648;52.094;5.054;2022-10-14T21:24:16;7.80;;;2.55;;
73434;SDS011;61648;52.094;5.054;2022-10-14T21:26:42;6.75;;;2.83;;
73434;SDS011;61648;52.094;5.054;2022-10-14T21:29:09;5.22;;;2.22;;
73434;SDS011;61648;52.094;5.054;2022-10-14T21:31:35;7.65;;;3.13;;
73434;SDS011;61648;52.094;5.054;2022-10-14T21:34:02;7.60;;;2.65;;
73434;SDS011;61648;52.094;5.054;2022-10-14T21:36:28;5.88;;;2.50;;
73434;SDS011;61648;52.094;5.054;2022-10-14T21:38:54;6.18;;;2.28;;